createdAt,value
2018-06-05T00:02:05.002Z,13.93
2018-06-05T00:04:36.104Z,11.33
2018-06-05T00:07:07.854Z,17.97
2018-06-05T00:09:39.924Z,13.50
2018-06-05T00:12:10.963Z,12.57
2018-06-05T00:14:42.353Z,17.13
2018-06-05T00:17:15.181Z,14.33
2018-06-05T00:19:46.515Z,14.17
2018-06-05T00:22:18.206Z,13.03
2018-06-05T00:24:50.647Z,20.10
2018-06-05T00:27:23.101Z,17.07
2018-06-05T00:29:54.264Z,11.27
2018-06-05T00:32:25.563Z,13.20
2018-06-05T00:34:57.609Z,11.00
2018-06-05T00:37:29.111Z,12.73
2018-06-05T00:40:01.577Z,13.73
2018-06-05T00:42:33.861Z,8.57
2018-06-05T00:45:05.127Z,13.10
2018-06-05T00:47:36.295Z,17.73
2018-06-05T00:50:07.865Z,12.83
2018-06-05T00:52:39.109Z,16.03
2018-06-05T00:55:10.329Z,15.03
2018-06-05T00:57:41.916Z,12.90
2018-06-05T01:00:15.480Z,12.73
2018-06-05T01:02:47.752Z,13.90
2018-06-05T01:05:20.309Z,12.20
2018-06-05T01:07:52.217Z,10.33
2018-06-05T01:10:23.424Z,10.70
2018-06-05T01:12:54.900Z,10.20
2018-06-05T01:15:26.841Z,12.40
2018-06-05T01:17:58.488Z,9.20
2018-06-05T01:20:30.419Z,9.70
2018-06-05T01:23:01.216Z,10.60
2018-06-05T01:25:32.432Z,11.37
2018-06-05T01:28:03.891Z,12.07
2018-06-05T01:30:35.494Z,17.47
2018-06-05T01:33:08.418Z,13.70
2018-06-05T01:35:40.241Z,9.00
2018-06-05T01:38:11.793Z,11.70
2018-06-05T01:40:42.885Z,12.10
2018-06-05T01:43:14.503Z,15.53
2018-06-05T01:45:45.425Z,15.83
2018-06-05T01:48:17.677Z,8.17
2018-06-05T01:50:49.133Z,9.57
2018-06-05T01:53:20.890Z,10.03
2018-06-05T01:55:52.311Z,10.37
2018-06-05T01:58:23.183Z,14.77
2018-06-05T02:00:55.419Z,13.70
2018-06-05T02:03:27.075Z,18.40
2018-06-05T02:05:59.589Z,11.70
2018-06-05T02:08:30.861Z,13.10
2018-06-05T02:11:01.997Z,14.77
2018-06-05T02:13:33.094Z,12.37
2018-06-05T02:16:04.351Z,16.50
2018-06-05T02:18:35.665Z,10.83
2018-06-05T02:21:06.942Z,12.40
2018-06-05T02:23:39.143Z,15.63
2018-06-05T02:26:09.994Z,11.67
2018-06-05T02:28:41.997Z,10.73
2018-06-05T02:31:12.387Z,10.03
2018-06-05T02:33:43.593Z,11.73
2018-06-05T02:36:14.661Z,7.73
2018-06-05T02:38:46.715Z,8.53
2018-06-05T02:41:18.929Z,8.40
2018-06-05T02:43:50.132Z,9.73
2018-06-05T02:46:21.591Z,13.63
2018-06-05T02:48:52.823Z,13.70
2018-06-05T02:51:23.845Z,10.87
2018-06-05T02:53:55.203Z,11.57
2018-06-05T02:56:26.544Z,7.97
2018-06-05T02:58:59.152Z,8.93
2018-06-05T03:01:30.461Z,8.47
2018-06-05T03:04:01.782Z,12.67
2018-06-05T03:06:33.076Z,11.53
2018-06-05T03:09:04.467Z,11.53
2018-06-05T03:11:35.619Z,7.10
2018-06-05T03:14:07.883Z,9.80
2018-06-05T03:16:39.841Z,9.47
2018-06-05T03:19:11.213Z,10.53
2018-06-05T03:21:42.325Z,13.13
2018-06-05T03:24:14.878Z,9.83
2018-06-05T03:27:29.773Z,13.93
2018-06-05T03:30:02.104Z,8.20
2018-06-05T03:32:33.525Z,11.43
2018-06-05T03:35:04.664Z,11.93
2018-06-05T03:37:36.145Z,10.97
2018-06-05T03:40:07.270Z,15.57
2018-06-05T03:42:38.325Z,13.80
2018-06-05T03:45:09.338Z,11.67
2018-06-05T03:47:40.983Z,12.77
2018-06-05T03:50:12.114Z,7.93
2018-06-05T03:52:43.510Z,12.00
2018-06-05T03:55:15.020Z,15.20
2018-06-05T03:57:46.081Z,15.17
2018-06-05T04:00:17.789Z,8.57
2018-06-05T04:02:49.600Z,7.13
2018-06-05T04:05:22.253Z,10.93
2018-06-05T04:07:53.283Z,9.73
2018-06-05T04:10:23.779Z,11.03
2018-06-05T04:12:54.835Z,11.03
2018-06-05T04:15:26.177Z,11.00
2018-06-05T04:18:44.596Z,6.93
2018-06-05T04:21:15.909Z,8.07
2018-06-05T04:23:47.112Z,7.83
2018-06-05T04:26:19.327Z,5.27
2018-06-05T04:28:50.297Z,11.00
2018-06-05T04:31:21.551Z,11.70
2018-06-05T04:33:52.506Z,13.13
2018-06-05T04:36:24.621Z,12.57
2018-06-05T04:38:55.812Z,7.80
2018-06-05T04:41:29.080Z,14.20
2018-06-05T04:44:00.092Z,5.13
2018-06-05T04:46:31.173Z,11.07
2018-06-05T04:49:02.446Z,9.37
2018-06-05T04:51:34.626Z,9.10
2018-06-05T04:54:05.851Z,10.80
2018-06-05T04:56:37.101Z,10.30
2018-06-05T04:59:08.947Z,5.30
2018-06-05T05:01:40.204Z,10.30
2018-06-05T05:04:11.374Z,10.17
2018-06-05T05:06:42.773Z,12.90
2018-06-05T05:09:15.535Z,5.33
2018-06-05T05:11:46.728Z,7.80
2018-06-05T05:14:18.166Z,8.67
2018-06-05T05:16:49.176Z,10.50
2018-06-05T05:19:20.705Z,9.43
2018-06-05T05:21:51.924Z,9.07
2018-06-05T05:24:23.370Z,9.27
2018-06-05T05:26:55.726Z,10.80
2018-06-05T05:29:27.889Z,8.07
2018-06-05T05:31:58.733Z,10.10
2018-06-05T05:34:29.504Z,7.87
2018-06-05T05:37:00.683Z,16.03
2018-06-05T05:39:31.772Z,15.47
2018-06-05T05:42:03.413Z,22.10
2018-06-05T05:44:35.320Z,13.40
2018-06-05T05:47:06.481Z,15.73
2018-06-05T05:49:37.820Z,11.93
2018-06-05T05:52:09.577Z,11.97
2018-06-05T05:54:40.841Z,13.13
2018-06-05T05:57:11.856Z,7.93
2018-06-05T05:59:43.701Z,10.50
2018-06-05T06:02:15.676Z,12.90
2018-06-05T06:04:47.729Z,14.23
2018-06-05T06:07:19.076Z,10.27
2018-06-05T06:09:53.541Z,9.23
2018-06-05T06:12:24.848Z,8.73
2018-06-05T06:14:56.920Z,9.50
2018-06-05T06:17:28.421Z,6.77
2018-06-05T06:20:00.571Z,9.37
2018-06-05T06:22:31.607Z,10.83
2018-06-05T06:25:02.602Z,9.63
2018-06-05T06:27:33.683Z,8.00
2018-06-05T06:30:05.059Z,20.53
2018-06-05T06:32:37.133Z,14.77
2018-06-05T06:35:08.620Z,39.57
2018-06-05T06:37:39.973Z,7.37
2018-06-05T06:40:11.745Z,6.00
2018-06-05T06:42:42.885Z,10.33
2018-06-05T06:45:14.425Z,6.83
2018-06-05T06:47:46.038Z,7.83
2018-06-05T06:50:18.110Z,10.80
2018-06-05T06:52:50.189Z,5.80
2018-06-05T06:55:21.350Z,6.77
2018-06-05T06:57:53.139Z,8.37
2018-06-05T07:00:25.391Z,5.30
2018-06-05T07:02:58.039Z,8.70
2018-06-05T07:05:31.829Z,8.13
2018-06-05T07:08:02.898Z,9.10
2018-06-05T07:10:34.233Z,6.53
2018-06-05T07:13:08.075Z,4.77
2018-06-05T07:15:39.692Z,5.03
2018-06-05T07:18:11.509Z,4.73
2018-06-05T07:20:43.684Z,6.53
2018-06-05T07:23:16.135Z,3.30
2018-06-05T07:25:55.463Z,4.43
2018-06-05T07:28:26.810Z,7.70
2018-06-05T07:30:58.192Z,4.63
2018-06-05T07:33:31.383Z,4.87
2018-06-05T07:36:03.033Z,6.23
2018-06-05T07:38:34.319Z,5.17
2018-06-05T07:41:05.842Z,7.47
2018-06-05T07:43:37.702Z,3.63
2018-06-05T07:46:09.017Z,4.40
2018-06-05T07:48:41.032Z,4.57
2018-06-05T07:51:12.986Z,4.07
2018-06-05T07:53:44.300Z,4.57
2018-06-05T07:56:15.639Z,4.87
2018-06-05T07:58:46.950Z,3.73
2018-06-05T08:01:19.250Z,6.37
2018-06-05T08:03:50.781Z,4.17
2018-06-05T08:06:22.779Z,3.30
2018-06-05T08:08:55.011Z,4.03
2018-06-05T08:11:26.179Z,4.83
2018-06-05T08:13:58.541Z,4.77
2018-06-05T08:16:30.873Z,5.10
2018-06-05T08:19:02.731Z,2.93
2018-06-05T08:21:34.281Z,3.70
2018-06-05T08:24:06.692Z,3.20
2018-06-05T08:26:57.073Z,2.60
2018-06-05T08:29:28.354Z,2.87
2018-06-05T08:32:00.521Z,3.87
2018-06-05T08:34:32.301Z,3.00
2018-06-05T08:37:03.956Z,4.77
2018-06-05T08:39:35.994Z,3.83
2018-06-05T08:42:07.634Z,3.10
2018-06-05T08:44:39.958Z,2.07
2018-06-05T08:47:12.224Z,2.53
2018-06-05T08:49:44.226Z,2.47
2018-06-05T08:52:15.623Z,3.97
2018-06-05T08:54:46.778Z,2.53
2018-06-05T08:57:19.294Z,4.80
2018-06-05T08:59:51.086Z,4.53
2018-06-05T09:02:22.896Z,3.70
2018-06-05T09:04:56.372Z,3.77
2018-06-05T09:07:27.596Z,2.43
2018-06-05T09:09:59.165Z,4.87
2018-06-05T09:12:30.341Z,2.30
2018-06-05T09:15:01.651Z,2.43
2018-06-05T09:17:32.837Z,3.93
2018-06-05T09:20:04.841Z,3.27
2018-06-05T09:22:37.838Z,4.27
2018-06-05T09:25:09.541Z,4.53
2018-06-05T09:27:41.603Z,4.33
2018-06-05T09:30:12.707Z,2.67
2018-06-05T09:32:43.913Z,3.00
2018-06-05T09:35:15.254Z,3.33
2018-06-05T09:37:48.116Z,5.40
2018-06-05T09:40:19.762Z,3.77
2018-06-05T09:42:51.369Z,5.17
2018-06-05T09:45:22.716Z,3.53
2018-06-05T09:47:53.823Z,2.40
2018-06-05T09:50:25.194Z,1.20
2018-06-05T09:52:56.789Z,2.57
2018-06-05T09:55:29.406Z,4.93
2018-06-05T09:58:01.958Z,2.87
2018-06-05T10:00:38.770Z,1.67
2018-06-05T10:03:10.031Z,1.63
2018-06-05T10:05:42.222Z,3.40
2018-06-05T10:08:14.448Z,2.53
2018-06-05T10:10:46.378Z,4.53
2018-06-05T10:13:18.146Z,1.83
2018-06-05T10:15:49.473Z,3.90
2018-06-05T10:18:29.269Z,2.17
2018-06-05T10:21:01.771Z,4.47
2018-06-05T10:23:33.715Z,2.97
2018-06-05T10:26:05.190Z,5.03
2018-06-05T10:28:35.976Z,3.30
2018-06-05T10:31:08.263Z,2.60
2018-06-05T10:33:39.471Z,5.53
2018-06-05T10:36:11.859Z,6.10
2018-06-05T10:38:44.238Z,4.97
2018-06-05T10:41:16.560Z,4.47
2018-06-05T10:43:47.179Z,4.90
2018-06-05T10:46:18.989Z,3.23
2018-06-05T10:48:50.198Z,5.83
2018-06-05T10:51:22.240Z,4.33
2018-06-05T10:53:54.460Z,2.77
2018-06-05T10:56:26.551Z,3.43
2018-06-05T10:58:59.088Z,4.17
2018-06-05T11:01:33.264Z,1.40
2018-06-05T11:04:04.773Z,3.50
2018-06-05T11:06:36.231Z,2.60
2018-06-05T11:09:10.135Z,3.43
2018-06-05T11:11:41.754Z,3.43
2018-06-05T11:14:12.893Z,1.50
2018-06-05T11:16:45.053Z,2.20
2018-06-05T11:19:16.930Z,3.20
2018-06-05T11:21:48.927Z,2.57
2018-06-05T11:24:22.177Z,2.77
2018-06-05T11:26:54.204Z,2.77
2018-06-05T11:29:25.415Z,2.63
2018-06-05T11:31:57.311Z,2.77
2018-06-05T11:34:29.677Z,2.97
2018-06-05T11:37:01.690Z,2.53
2018-06-05T11:39:33.699Z,1.87
2018-06-05T11:42:07.367Z,1.93
2018-06-05T11:44:39.492Z,3.10
2018-06-05T11:47:12.329Z,4.37
2018-06-05T11:49:44.249Z,2.07
2018-06-05T11:52:16.429Z,2.33
2018-06-05T11:54:49.944Z,1.47
2018-06-05T11:57:23.249Z,1.80
2018-06-05T11:59:54.945Z,3.13
2018-06-05T12:02:28.954Z,3.83
2018-06-05T12:05:00.797Z,1.70
2018-06-05T12:07:32.733Z,3.93
2018-06-05T12:10:05.751Z,2.17
2018-06-05T12:12:38.013Z,2.53
2018-06-05T12:15:09.688Z,1.40
2018-06-05T12:17:41.203Z,2.10
2018-06-05T12:20:12.566Z,2.60
2018-06-05T12:22:44.092Z,2.47
2018-06-05T12:25:14.984Z,2.20
2018-06-05T12:27:47.371Z,2.40
2018-06-05T12:30:19.618Z,2.63
2018-06-05T12:32:52.161Z,2.20
2018-06-05T12:35:24.194Z,1.30
2018-06-05T12:37:56.186Z,2.27
2018-06-05T12:40:27.897Z,2.50
2018-06-05T12:42:59.387Z,2.20
2018-06-05T12:45:31.421Z,3.90
2018-06-05T12:48:03.205Z,2.90
2018-06-05T12:50:35.849Z,2.50
2018-06-05T12:53:07.817Z,2.37
2018-06-05T12:55:40.103Z,5.37
2018-06-05T12:58:11.936Z,3.00
2018-06-05T13:00:43.243Z,4.23
2018-06-05T13:03:15.689Z,5.83
2018-06-05T13:05:48.990Z,2.97
2018-06-05T13:08:23.018Z,1.80
2018-06-05T13:10:55.298Z,2.23
2018-06-05T13:13:28.955Z,2.60
2018-06-05T13:16:04.358Z,4.33
2018-06-05T13:18:35.640Z,2.33
2018-06-05T13:21:07.603Z,1.67
2018-06-05T13:23:39.679Z,1.63
2018-06-05T13:26:11.020Z,1.33
2018-06-05T13:28:43.301Z,2.57
2018-06-05T13:31:15.098Z,1.67
2018-06-05T13:33:46.501Z,2.53
2018-06-05T13:36:18.933Z,1.53
2018-06-05T13:38:51.335Z,2.17
2018-06-05T13:41:23.558Z,2.17
2018-06-05T13:43:55.978Z,3.23
2018-06-05T13:46:28.303Z,4.30
2018-06-05T13:48:59.759Z,1.80
2018-06-05T13:51:33.201Z,2.73
2018-06-05T13:54:04.296Z,4.53
2018-06-05T13:56:36.376Z,3.73
2018-06-05T13:59:07.889Z,4.00
2018-06-05T14:01:40.622Z,4.23
2018-06-05T14:04:12.446Z,1.90
2018-06-05T14:06:43.592Z,1.93
2018-06-05T14:09:15.738Z,2.33
2018-06-05T14:11:47.873Z,5.87
2018-06-05T14:14:19.411Z,3.67
2018-06-05T14:16:51.807Z,3.87
2018-06-05T14:19:24.382Z,2.13
2018-06-05T14:21:56.289Z,7.90
2018-06-05T14:24:28.422Z,3.30
2018-06-05T14:27:01.002Z,3.90
2018-06-05T14:29:32.887Z,2.87
2018-06-05T14:32:04.808Z,2.30
2018-06-05T14:34:38.123Z,1.70
2018-06-05T14:37:09.590Z,2.17
2018-06-05T14:39:42.282Z,3.33
2018-06-05T14:42:14.318Z,2.67
2018-06-05T14:44:46.365Z,4.00
2018-06-05T14:47:24.725Z,4.23
2018-06-05T14:49:56.110Z,1.90
2018-06-05T14:52:27.872Z,3.03
2018-06-05T14:54:59.776Z,2.77
2018-06-05T14:57:31.509Z,4.30
2018-06-05T15:00:03.664Z,3.47
2018-06-05T15:02:35.670Z,4.73
2018-06-05T15:05:09.220Z,2.63
2018-06-05T15:07:40.252Z,2.07
2018-06-05T15:10:12.510Z,2.40
2018-06-05T15:12:44.236Z,3.20
2018-06-05T15:15:16.370Z,2.97
2018-06-05T15:17:47.939Z,2.27
2018-06-05T15:20:19.947Z,4.87
2018-06-05T15:22:51.169Z,2.93
2018-06-05T15:25:22.816Z,5.83
2018-06-05T15:27:55.204Z,4.43
2018-06-05T15:30:26.711Z,7.47
2018-06-05T15:32:58.252Z,1.77
2018-06-05T15:35:30.139Z,8.83
2018-06-05T15:38:02.668Z,3.43
2018-06-05T15:40:34.098Z,5.00
2018-06-05T15:43:05.923Z,5.20
2018-06-05T15:45:37.897Z,3.47
2018-06-05T15:48:10.000Z,3.07
2018-06-05T15:50:41.537Z,3.57
2018-06-05T15:53:14.868Z,4.60
2018-06-05T15:55:45.486Z,2.40
2018-06-05T15:58:17.253Z,3.40
2018-06-05T16:00:49.038Z,5.47
2018-06-05T16:03:20.538Z,7.33
2018-06-05T16:05:52.248Z,6.37
2018-06-05T16:08:23.992Z,8.03
2018-06-05T16:10:56.934Z,4.37
2018-06-05T16:13:28.386Z,8.40
2018-06-05T16:16:00.283Z,6.17
2018-06-05T16:18:32.481Z,3.63
2018-06-05T16:21:04.004Z,2.90
2018-06-05T16:23:34.964Z,6.73
2018-06-05T16:26:06.692Z,3.10
2018-06-05T16:28:38.656Z,2.27
2018-06-05T16:31:10.068Z,4.83
2018-06-05T16:33:41.610Z,4.00
2018-06-05T16:36:12.929Z,3.43
2018-06-05T16:38:44.731Z,4.20
2018-06-05T16:41:16.085Z,2.03
2018-06-05T16:43:48.973Z,2.70
2018-06-05T16:46:20.229Z,4.50
2018-06-05T16:48:51.446Z,3.40
2018-06-05T16:51:23.319Z,4.03
2018-06-05T16:53:54.521Z,5.70
2018-06-05T16:56:25.900Z,3.63
2018-06-05T16:58:56.488Z,2.23
2018-06-05T17:01:29.190Z,3.60
2018-06-05T17:04:01.268Z,6.30
2018-06-05T17:06:33.361Z,2.57
2018-06-05T17:09:08.185Z,3.47
2018-06-05T17:11:41.834Z,2.67
2018-06-05T17:14:17.239Z,2.60
2018-06-05T17:16:51.489Z,4.43
2018-06-05T17:19:24.567Z,4.77
2018-06-05T17:21:56.356Z,4.20
2018-06-05T17:24:27.573Z,5.53
2018-06-05T17:26:59.118Z,3.73
2018-06-05T17:29:30.594Z,2.20
2018-06-05T17:32:02.546Z,2.43
2018-06-05T17:34:34.327Z,6.63
2018-06-05T17:37:05.821Z,2.87
2018-06-05T17:39:37.882Z,2.37
2018-06-05T17:42:10.471Z,2.37
2018-06-05T17:44:43.438Z,3.83
2018-06-05T17:47:16.080Z,6.07
2018-06-05T17:49:49.387Z,2.93
2018-06-05T17:52:21.434Z,5.17
2018-06-05T17:54:52.843Z,3.47
2018-06-05T17:57:28.218Z,4.07
2018-06-05T18:00:01.003Z,1.77
2018-06-05T18:02:32.520Z,7.67
2018-06-05T18:05:05.028Z,6.10
2018-06-05T18:07:37.974Z,5.67
2018-06-05T18:10:12.611Z,3.97
2018-06-05T18:12:46.037Z,4.83
2018-06-05T18:15:21.132Z,4.40
2018-06-05T18:17:53.535Z,4.87
2018-06-05T18:20:27.018Z,5.17
2018-06-05T18:23:00.095Z,3.37
2018-06-05T18:25:32.460Z,6.23
2018-06-05T18:28:05.281Z,2.43
2018-06-05T18:30:37.196Z,6.23
2018-06-05T18:33:08.452Z,4.73
2018-06-05T18:35:39.915Z,5.10
2018-06-05T18:38:11.244Z,4.70
2018-06-05T18:40:42.434Z,5.43
2018-06-05T18:43:14.919Z,9.33
2018-06-05T18:45:47.648Z,7.77
2018-06-05T18:48:19.934Z,3.03
2018-06-05T18:50:53.720Z,4.17
2018-06-05T18:53:26.217Z,5.97
2018-06-05T18:55:58.006Z,12.93
2018-06-05T18:58:30.299Z,9.10
2018-06-05T19:01:02.276Z,8.03
2018-06-05T19:03:34.269Z,5.73
2018-06-05T19:06:06.380Z,6.37
2018-06-05T19:08:40.040Z,5.53
2018-06-05T19:11:11.715Z,3.60
2018-06-05T19:13:44.345Z,9.53
2018-06-05T19:16:16.762Z,4.83
2018-06-05T19:18:47.456Z,9.47
2018-06-05T19:21:19.036Z,5.90
2018-06-05T19:23:50.209Z,8.03
2018-06-05T19:26:22.273Z,3.10
2018-06-05T19:28:54.179Z,4.27
2018-06-05T19:31:27.560Z,2.87
2018-06-05T19:33:59.357Z,4.60
2018-06-05T19:36:31.875Z,6.93
2018-06-05T19:39:04.367Z,5.53
2018-06-05T19:41:37.643Z,3.83
2018-06-05T19:44:10.716Z,4.33
2018-06-05T19:46:43.204Z,4.73
2018-06-05T19:49:17.995Z,5.93
2018-06-05T19:51:49.430Z,5.40
2018-06-05T19:54:21.903Z,5.57
2018-06-05T19:56:53.642Z,9.97
2018-06-05T19:59:25.720Z,5.70
2018-06-05T20:01:58.388Z,4.23
2018-06-05T20:04:29.838Z,4.33
2018-06-05T20:07:03.213Z,4.97
2018-06-05T20:09:35.771Z,3.87
2018-06-05T20:12:08.198Z,3.03
2018-06-05T20:14:40.617Z,3.37
2018-06-05T20:17:13.309Z,7.00
2018-06-05T20:19:45.608Z,3.23
2018-06-05T20:22:17.034Z,4.03
2018-06-05T20:24:49.596Z,4.00
2018-06-05T20:27:21.067Z,5.17
2018-06-05T20:29:53.575Z,3.37
2018-06-05T20:32:26.142Z,4.87
2018-06-05T20:34:57.831Z,4.10
2018-06-05T20:37:30.811Z,3.27
2018-06-05T20:40:03.985Z,6.87
2018-06-05T20:42:36.915Z,5.57
2018-06-05T20:45:10.588Z,3.67
2018-06-05T20:47:44.218Z,6.20
2018-06-05T20:50:16.258Z,9.40
2018-06-05T20:52:48.205Z,5.23
2018-06-05T20:55:20.493Z,10.00
2018-06-05T20:57:52.268Z,5.33
2018-06-05T21:00:23.534Z,3.27
2018-06-05T21:02:54.384Z,7.70
2018-06-05T21:05:25.858Z,6.40
2018-06-05T21:07:57.324Z,7.17
2018-06-05T21:10:28.595Z,4.97
2018-06-05T21:12:59.988Z,21.87
2018-06-05T21:15:33.906Z,8.53
2018-06-05T21:18:06.400Z,6.70
2018-06-05T21:20:39.158Z,37.50
2018-06-05T21:23:11.201Z,15.57
2018-06-05T21:25:42.732Z,7.10
2018-06-05T21:28:14.383Z,3.20
2018-06-05T21:30:46.228Z,3.83
2018-06-05T21:33:19.014Z,9.50
2018-06-05T21:35:53.539Z,10.30
2018-06-05T21:38:25.063Z,8.57
2018-06-05T21:40:57.926Z,9.73
2018-06-05T21:43:29.474Z,23.70
2018-06-05T21:46:00.795Z,5.07
2018-06-05T21:48:33.199Z,7.47
2018-06-05T21:51:05.568Z,4.60
2018-06-05T21:53:36.677Z,6.40
2018-06-05T21:56:08.436Z,4.70
2018-06-05T21:58:39.815Z,5.13
2018-06-05T22:01:11.979Z,6.53
2018-06-05T22:03:43.915Z,3.97
2018-06-05T22:06:16.086Z,5.37
2018-06-05T22:08:48.133Z,4.40
2018-06-05T22:11:19.392Z,3.67
2018-06-05T22:13:50.817Z,5.40
2018-06-05T22:16:22.103Z,5.30
2018-06-05T22:18:53.394Z,6.20
2018-06-05T22:21:26.043Z,5.83
2018-06-05T22:23:57.301Z,5.10
2018-06-05T22:26:28.685Z,4.67
2018-06-05T22:29:00.524Z,4.20
2018-06-05T22:31:31.529Z,5.27
2018-06-05T22:34:02.937Z,6.03
2018-06-05T22:36:33.624Z,4.27
2018-06-05T22:39:07.096Z,3.80
2018-06-05T22:41:39.535Z,7.63
2018-06-05T22:44:11.019Z,11.03
2018-06-05T22:46:42.346Z,7.73
2018-06-05T22:49:14.450Z,8.70
2018-06-05T22:51:45.860Z,5.53
2018-06-05T22:54:18.357Z,10.13
2018-06-05T22:56:50.806Z,9.50
2018-06-05T22:59:22.178Z,7.63
2018-06-05T23:01:53.610Z,4.83
2018-06-05T23:04:26.622Z,5.40
2018-06-05T23:06:58.087Z,6.70
2018-06-05T23:09:29.380Z,4.20
2018-06-05T23:12:01.581Z,5.13
2018-06-05T23:14:32.595Z,9.00
2018-06-05T23:17:03.916Z,8.37
2018-06-05T23:19:35.052Z,6.17
2018-06-05T23:22:05.960Z,5.53
2018-06-05T23:24:37.756Z,8.10
2018-06-05T23:27:09.010Z,6.13
2018-06-05T23:29:41.085Z,5.77
2018-06-05T23:32:12.858Z,6.07
2018-06-05T23:34:43.939Z,5.53
2018-06-05T23:37:16.454Z,6.67
2018-06-05T23:39:47.632Z,6.53
2018-06-05T23:42:18.647Z,4.90
2018-06-05T23:44:50.193Z,6.07
2018-06-05T23:47:22.386Z,8.50
2018-06-05T23:49:53.540Z,7.13
2018-06-05T23:52:25.024Z,8.10
2018-06-05T23:54:56.299Z,10.37
2018-06-05T23:57:27.323Z,10.73
2018-06-05T23:59:58.596Z,8.80
